Time;durP1;ratioP1;P1;durP2;ratioP2;P2;SDS_P1;SDS_P2;PMS_P1;PMS_P2;Temp;Humidity;BMP_temperature;BMP_pressure;BME280_temperature;BME280_humidity;BME280_pressure;Samples;Min_cycle;Max_cycle;Signal;HPM_P1;HPM_P2
2023/09/10 00:01:00;;;;;;;8.43;5.13;;;20.30;99.90;;;;;;5033140;28;20452;-80
2023/09/10 00:03:27;;;;;;;4.50;3.47;;;20.30;99.90;;;;;;5033135;28;20449;-81
2023/09/10 00:05:53;;;;;;;6.80;4.10;;;20.30;99.90;;;;;;5033000;28;20473;-80
2023/09/10 00:08:20;;;;;;;4.23;3.73;;;20.30;99.90;;;;;;5033073;28;20461;-80
2023/09/10 00:10:47;;;;;;;7.17;3.87;;;20.30;99.90;;;;;;5032951;28;20966;-80
2023/09/10 00:13:14;;;;;;;4.03;3.63;;;20.20;99.90;;;;;;5032934;28;20454;-80
2023/09/10 00:15:41;;;;;;;4.10;3.70;;;20.30;99.90;;;;;;5036457;28;20942;-80
2023/09/10 00:18:09;;;;;;;6.33;4.23;;;20.30;99.90;;;;;;5037162;28;20446;-80
2023/09/10 00:20:36;;;;;;;5.00;4.37;;;20.30;99.90;;;;;;5036826;28;20446;-80
2023/09/10 00:23:03;;;;;;;5.23;3.63;;;20.20;99.90;;;;;;5036720;28;20449;-80
2023/09/10 00:25:30;;;;;;;5.70;4.57;;;20.20;99.90;;;;;;5036183;28;20482;-80
2023/09/10 00:27:58;;;;;;;6.50;4.07;;;20.10;99.90;;;;;;5037034;28;20438;-80
2023/09/10 00:30:23;;;;;;;5.20;3.73;;;20.10;99.90;;;;;;5036414;28;20439;-80
2023/09/10 00:32:50;;;;;;;5.73;4.40;;;20.10;99.90;;;;;;5036633;28;20452;-80
2023/09/10 00:35:18;;;;;;;6.57;4.43;;;20.10;99.90;;;;;;5036411;28;20234;-80
2023/09/10 00:37:45;;;;;;;8.90;4.80;;;20.00;99.90;;;;;;5036552;28;20446;-80
2023/09/10 00:40:12;;;;;;;6.43;4.63;;;20.00;99.90;;;;;;5036525;28;20807;-80
2023/09/10 00:42:39;;;;;;;6.07;4.30;;;20.00;99.90;;;;;;5037274;28;20438;-80
2023/09/10 00:45:08;;;;;;;13.03;4.87;;;20.00;99.90;;;;;;5036275;28;20466;-80
2023/09/10 00:47:36;;;;;;;6.27;4.17;;;20.00;99.90;;;;;;5036149;28;20438;-80
2023/09/10 00:50:04;;;;;;;5.27;4.80;;;19.90;99.90;;;;;;5036037;28;20457;-80
2023/09/10 00:52:33;;;;;;;7.00;4.83;;;19.90;99.90;;;;;;5036626;28;20434;-80
2023/09/10 00:55:00;;;;;;;4.83;4.20;;;19.90;99.90;;;;;;5036069;28;20493;-80
2023/09/10 00:57:27;;;;;;;6.23;4.27;;;19.90;99.90;;;;;;5035892;28;20957;-80
2023/09/10 00:59:54;;;;;;;10.07;5.37;;;19.90;99.90;;;;;;5036156;28;20435;-80
2023/09/10 01:02:21;;;;;;;8.23;4.93;;;19.90;99.90;;;;;;5036314;28;20450;-80
2023/09/10 01:04:48;;;;;;;5.00;3.73;;;19.90;99.90;;;;;;5036021;28;20462;-80
2023/09/10 01:07:15;;;;;;;9.73;4.83;;;19.90;99.90;;;;;;5035988;28;20438;-80
2023/09/10 01:09:43;;;;;;;13.53;4.73;;;19.90;99.90;;;;;;5035838;28;20827;-80
2023/09/10 01:12:16;;;;;;;10.40;4.90;;;19.90;99.90;;;;;;5035671;28;20442;-80
2023/09/10 01:14:47;;;;;;;6.67;4.17;;;19.90;99.90;;;;;;5035805;28;20485;-80
2023/09/10 01:17:17;;;;;;;5.13;4.53;;;19.80;99.90;;;;;;5035785;28;20446;-80
2023/09/10 01:19:58;;;;;;;7.60;5.37;;;20.10;99.90;;;;;;5035813;28;20422;-80
2023/09/10 01:22:33;;;;;;;6.07;3.87;;;19.70;99.90;;;;;;5035793;28;20434;-80
2023/09/10 01:25:02;;;;;;;7.90;5.37;;;19.70;99.90;;;;;;5035389;28;20462;-80
2023/09/10 01:27:29;;;;;;;6.73;4.20;;;19.60;99.90;;;;;;5034857;28;20510;-80
2023/09/10 01:29:55;;;;;;;6.23;5.13;;;19.60;99.90;;;;;;5035354;28;20442;-80
2023/09/10 01:32:25;;;;;;;6.37;4.50;;;19.60;99.90;;;;;;5035886;28;20430;-80
2023/09/10 01:35:00;;;;;;;10.47;5.20;;;19.60;99.90;;;;;;5035648;28;20482;-80
2023/09/10 01:37:33;;;;;;;5.37;4.43;;;19.50;99.90;;;;;;5035309;28;20473;-80
2023/09/10 01:40:06;;;;;;;6.40;4.80;;;19.50;99.90;;;;;;5035525;28;20416;-80
2023/09/10 01:42:35;;;;;;;7.23;4.43;;;19.50;99.90;;;;;;5035158;28;20435;-80
2023/09/10 01:45:02;;;;;;;7.53;5.00;;;19.40;99.90;;;;;;5035242;28;20470;-80
2023/09/10 01:47:29;;;;;;;7.33;4.03;;;19.40;99.90;;;;;;5035698;28;20443;-81
2023/09/10 01:49:56;;;;;;;8.53;5.13;;;19.50;99.90;;;;;;5037536;28;20434;-80
2023/09/10 01:52:23;;;;;;;12.13;5.30;;;19.40;99.90;;;;;;5035992;28;20810;-80
2023/09/10 01:54:50;;;;;;;6.03;4.47;;;19.40;99.90;;;;;;5035143;28;20493;-80
2023/09/10 01:57:18;;;;;;;8.83;4.83;;;19.40;99.90;;;;;;5035152;28;20446;-80
2023/09/10 01:59:44;;;;;;;8.70;4.90;;;19.40;99.90;;;;;;5035039;28;20461;-80
2023/09/10 02:02:11;;;;;;;6.20;4.40;;;19.40;99.90;;;;;;5034966;28;20469;-80
2023/09/10 02:04:38;;;;;;;7.77;4.50;;;19.40;99.90;;;;;;5034860;28;20526;-80
2023/09/10 02:07:04;;;;;;;6.13;4.63;;;19.40;99.90;;;;;;5034995;28;20971;-80
2023/09/10 02:09:31;;;;;;;7.37;4.70;;;19.40;99.90;;;;;;5035072;28;20450;-80
2023/09/10 02:11:58;;;;;;;10.23;6.00;;;19.40;99.90;;;;;;5034760;28;20453;-81
2023/09/10 02:14:26;;;;;;;8.33;5.20;;;19.40;99.90;;;;;;5034204;28;20852;-80
2023/09/10 02:16:53;;;;;;;5.30;4.80;;;19.40;99.90;;;;;;5035375;28;20804;-80
2023/09/10 02:19:20;;;;;;;5.93;4.07;;;19.40;99.90;;;;;;5034616;28;20470;-80
2023/09/10 02:21:46;;;;;;;8.20;5.37;;;19.40;99.90;;;;;;5034333;28;20801;-80
2023/09/10 02:24:13;;;;;;;4.67;4.27;;;19.30;99.90;;;;;;5034536;28;20450;-80
2023/09/10 02:26:40;;;;;;;5.17;4.17;;;19.40;99.90;;;;;;5034215;28;20482;-80
2023/09/10 02:29:07;;;;;;;8.53;4.33;;;19.40;99.90;;;;;;5034491;28;20814;-80
2023/09/10 02:31:35;;;;;;;8.77;3.87;;;19.40;99.90;;;;;;5034424;28;20442;-80
2023/09/10 02:34:01;;;;;;;7.93;4.43;;;19.30;99.90;;;;;;5034356;28;20465;-80
2023/09/10 02:36:29;;;;;;;4.67;4.07;;;19.30;99.90;;;;;;5034130;28;20463;-80
2023/09/10 02:38:55;;;;;;;4.13;3.73;;;19.30;99.90;;;;;;5033255;28;20458;-80
2023/09/10 02:41:23;;;;;;;4.37;3.93;;;19.30;99.90;;;;;;5034193;28;20442;-80
2023/09/10 02:43:49;;;;;;;6.50;4.10;;;19.30;99.90;;;;;;5034183;28;20446;-80
2023/09/10 02:46:16;;;;;;;4.90;4.00;;;19.40;99.90;;;;;;5033883;28;20459;-80
2023/09/10 02:48:44;;;;;;;7.97;4.13;;;19.20;99.90;;;;;;5034048;28;20449;-80
2023/09/10 02:51:11;;;;;;;5.03;4.50;;;19.20;99.90;;;;;;5034001;28;20458;-80
2023/09/10 02:53:38;;;;;;;6.63;3.97;;;19.20;99.90;;;;;;5033984;28;20447;-80
2023/09/10 02:56:05;;;;;;;7.10;3.63;;;19.20;99.90;;;;;;5033780;28;20494;-80
2023/09/10 02:58:32;;;;;;;8.50;4.50;;;19.20;99.90;;;;;;5033736;28;20455;-80
2023/09/10 03:01:04;;;;;;;5.00;4.03;;;19.20;99.90;;;;;;5033870;28;20451;-80
2023/09/10 03:03:31;;;;;;;5.27;3.90;;;19.20;99.90;;;;;;5033591;28;20419;-80
2023/09/10 03:05:59;;;;;;;4.03;3.37;;;19.20;99.90;;;;;;5033723;28;20469;-80
2023/09/10 03:08:26;;;;;;;8.23;4.47;;;19.20;99.90;;;;;;5034039;28;20443;-80
2023/09/10 03:10:53;;;;;;;3.77;3.47;;;19.10;99.90;;;;;;5033439;28;20442;-80
2023/09/10 03:13:20;;;;;;;4.23;3.20;;;19.20;99.90;;;;;;5033668;28;20442;-80
2023/09/10 03:15:48;;;;;;;6.43;4.80;;;19.20;99.90;;;;;;5033518;28;20495;-80
2023/09/10 03:18:15;;;;;;;3.73;3.43;;;19.30;99.90;;;;;;5033291;28;20993;-80
2023/09/10 03:20:42;;;;;;;4.67;3.63;;;19.20;99.90;;;;;;5033329;28;20427;-80
2023/09/10 03:23:10;;;;;;;8.73;3.90;;;19.20;99.90;;;;;;5033514;28;20447;-80
2023/09/10 03:25:37;;;;;;;5.60;3.20;;;19.10;99.90;;;;;;5033013;28;20478;-80
2023/09/10 03:28:05;;;;;;;6.03;4.50;;;19.00;99.90;;;;;;5033171;28;20974;-80
2023/09/10 03:30:32;;;;;;;6.70;4.07;;;19.10;99.90;;;;;;5033555;28;20458;-80
2023/09/10 03:32:59;;;;;;;4.20;3.63;;;19.10;99.90;;;;;;5033396;28;20455;-80
2023/09/10 03:35:26;;;;;;;6.80;4.00;;;19.00;99.90;;;;;;5033024;28;20860;-80
2023/09/10 03:37:52;;;;;;;4.80;3.57;;;19.00;99.90;;;;;;5033355;28;20457;-80
2023/09/10 03:40:20;;;;;;;4.03;3.73;;;19.00;99.90;;;;;;5033004;28;21062;-81
2023/09/10 03:42:48;;;;;;;4.80;3.60;;;18.90;99.90;;;;;;5033297;28;20473;-80
2023/09/10 03:45:15;;;;;;;14.30;3.73;;;18.90;99.90;;;;;;5033428;28;20475;-81
2023/09/10 03:47:42;;;;;;;7.83;4.20;;;18.80;99.90;;;;;;5033353;28;20454;-81
2023/09/10 03:50:10;;;;;;;5.37;3.90;;;18.80;99.90;;;;;;5033003;28;20457;-81
2023/09/10 03:52:37;;;;;;;4.47;3.93;;;18.80;99.90;;;;;;5033302;28;20965;-80
2023/09/10 03:55:05;;;;;;;5.60;3.90;;;18.80;99.90;;;;;;5033038;28;20871;-80
2023/09/10 03:57:33;;;;;;;5.37;4.70;;;18.70;99.90;;;;;;5033158;28;20454;-80
2023/09/10 04:00:00;;;;;;;5.37;3.40;;;18.70;99.90;;;;;;5033132;28;20448;-80
2023/09/10 04:02:28;;;;;;;4.53;4.03;;;18.70;99.90;;;;;;5033067;28;20450;-80
2023/09/10 04:04:56;;;;;;;7.27;3.93;;;18.60;99.90;;;;;;5032988;28;20471;-80
2023/09/10 04:07:22;;;;;;;6.80;4.37;;;18.70;99.90;;;;;;5033024;28;20816;-80
2023/09/10 04:09:49;;;;;;;5.90;3.87;;;18.70;99.90;;;;;;5033270;28;20449;-80
2023/09/10 04:12:16;;;;;;;4.90;3.60;;;18.60;99.90;;;;;;5032705;28;20435;-80
2023/09/10 04:14:44;;;;;;;8.60;4.57;;;18.60;99.90;;;;;;5032840;28;20493;-80
2023/09/10 04:17:11;;;;;;;5.03;3.93;;;18.60;99.90;;;;;;5032717;28;20966;-80
2023/09/10 04:19:37;;;;;;;3.53;3.00;;;18.60;99.90;;;;;;5032660;28;20970;-80
2023/09/10 04:22:04;;;;;;;6.93;4.00;;;18.60;99.90;;;;;;5032654;28;20941;-80
2023/09/10 04:24:31;;;;;;;4.30;3.90;;;18.60;99.90;;;;;;5033271;28;20447;-80
2023/09/10 04:26:58;;;;;;;6.60;4.23;;;18.60;99.90;;;;;;5032434;28;20466;-80
2023/09/10 04:29:25;;;;;;;4.77;4.20;;;18.60;99.90;;;;;;5032624;28;20435;-80
2023/09/10 04:31:53;;;;;;;7.63;5.07;;;18.60;99.90;;;;;;5033653;28;20450;-80
2023/09/10 04:34:20;;;;;;;7.20;4.07;;;18.60;99.90;;;;;;5032773;28;20446;-80
2023/09/10 04:36:47;;;;;;;4.67;3.57;;;18.60;99.90;;;;;;5032720;28;20486;-80
2023/09/10 04:39:14;;;;;;;6.40;3.07;;;18.60;99.90;;;;;;5032771;28;20496;-80
2023/09/10 04:41:40;;;;;;;6.97;4.00;;;18.60;99.90;;;;;;5032478;28;20947;-80
2023/09/10 04:44:07;;;;;;;5.83;3.97;;;18.60;99.90;;;;;;5032764;28;20449;-80
2023/09/10 04:46:34;;;;;;;5.37;4.13;;;18.50;99.90;;;;;;5032580;28;20462;-80
2023/09/10 04:49:02;;;;;;;5.70;4.37;;;18.50;99.90;;;;;;5032681;28;20453;-80
2023/09/10 04:51:29;;;;;;;6.00;4.00;;;18.60;99.90;;;;;;5032643;28;20453;-80
2023/09/10 04:53:55;;;;;;;6.23;4.10;;;18.50;99.90;;;;;;5032649;28;20461;-80
2023/09/10 04:56:22;;;;;;;10.00;4.40;;;18.50;99.90;;;;;;5032428;28;20482;-80
2023/09/10 04:58:49;;;;;;;9.73;4.40;;;18.50;99.90;;;;;;5032570;28;20453;-80
2023/09/10 05:01:16;;;;;;;5.00;4.13;;;18.50;99.90;;;;;;5033602;28;20951;-80
2023/09/10 05:03:43;;;;;;;5.20;3.20;;;18.50;99.90;;;;;;5036067;28;20446;-80
2023/09/10 05:06:12;;;;;;;4.07;3.23;;;18.40;99.90;;;;;;5035678;28;20466;-81
2023/09/10 05:08:39;;;;;;;6.07;4.30;;;18.50;99.90;;;;;;5035978;28;20887;-81
2023/09/10 05:11:06;;;;;;;3.77;3.47;;;18.40;99.90;;;;;;5035617;28;20451;-80
2023/09/10 05:13:33;;;;;;;5.83;4.70;;;18.40;99.90;;;;;;5035586;28;20986;-80
2023/09/10 05:15:59;;;;;;;5.80;3.83;;;18.40;99.90;;;;;;5035721;28;20490;-80
2023/09/10 05:18:26;;;;;;;5.27;4.00;;;18.40;99.90;;;;;;5035792;28;20446;-80
2023/09/10 05:20:54;;;;;;;4.83;4.00;;;18.40;99.90;;;;;;5035491;28;20438;-80
2023/09/10 05:23:22;;;;;;;6.17;3.87;;;18.50;99.90;;;;;;5035611;28;20462;-80
2023/09/10 05:25:49;;;;;;;6.60;4.97;;;18.50;99.90;;;;;;5035032;28;20880;-80
2023/09/10 05:28:16;;;;;;;7.03;4.40;;;18.50;99.90;;;;;;5035548;28;20474;-80
2023/09/10 05:30:43;;;;;;;5.23;4.37;;;18.50;99.90;;;;;;5035171;28;20454;-80
2023/09/10 05:33:10;;;;;;;7.10;4.80;;;18.50;99.90;;;;;;5035206;28;20948;-80
2023/09/10 05:35:36;;;;;;;7.23;4.80;;;18.50;99.90;;;;;;5035032;28;20489;-80
2023/09/10 05:38:03;;;;;;;13.20;3.90;;;18.50;99.90;;;;;;5035427;28;20474;-80
2023/09/10 05:40:36;;;;;;;7.13;5.50;;;18.50;99.90;;;;;;5035370;28;20447;-80
2023/09/10 05:43:04;;;;;;;6.80;4.50;;;18.60;99.90;;;;;;5035329;28;20427;-80
2023/09/10 05:45:33;;;;;;;4.70;3.87;;;18.60;99.90;;;;;;5035553;28;20458;-80
2023/09/10 05:47:59;;;;;;;4.60;4.07;;;18.60;99.90;;;;;;5034932;28;20447;-80
2023/09/10 05:50:27;;;;;;;4.90;4.17;;;18.60;99.90;;;;;;5035359;28;20443;-82
2023/09/10 05:52:55;;;;;;;6.47;3.90;;;18.70;99.90;;;;;;5034875;28;20455;-81
2023/09/10 05:55:23;;;;;;;4.63;3.60;;;18.70;99.90;;;;;;5034997;28;20487;-81
2023/09/10 05:57:52;;;;;;;5.27;4.40;;;18.70;99.90;;;;;;5035074;28;20453;-81
2023/09/10 06:00:19;;;;;;;6.13;4.27;;;18.70;99.90;;;;;;5034758;28;21006;-80
2023/09/10 06:02:46;;;;;;;7.03;4.93;;;18.80;99.90;;;;;;5034664;28;20434;-80
2023/09/10 06:05:13;;;;;;;6.07;4.60;;;18.80;99.90;;;;;;5034898;28;20466;-80
2023/09/10 06:07:40;;;;;;;8.47;5.07;;;18.80;99.90;;;;;;5034928;28;20808;-80
2023/09/10 06:10:09;;;;;;;9.20;4.57;;;18.90;99.90;;;;;;5034515;28;20939;-80
2023/09/10 06:12:36;;;;;;;5.03;4.40;;;18.90;99.90;;;;;;5034511;28;20517;-81
2023/09/10 06:15:07;;;;;;;6.40;4.30;;;18.90;99.90;;;;;;5034628;28;20458;-81
2023/09/10 06:17:34;;;;;;;12.03;4.30;;;19.00;99.90;;;;;;5035226;28;20475;-81
2023/09/10 06:20:02;;;;;;;8.50;4.60;;;19.10;99.90;;;;;;5034668;28;20447;-81
2023/09/10 06:22:29;;;;;;;7.57;4.40;;;19.20;99.90;;;;;;5034704;28;20457;-80
2023/09/10 06:24:56;;;;;;;6.37;4.53;;;19.40;99.90;;;;;;5034488;28;20463;-81
2023/09/10 06:27:22;;;;;;;7.17;4.80;;;19.50;99.90;;;;;;5034228;28;20481;-81
2023/09/10 06:29:50;;;;;;;5.73;4.30;;;19.70;99.90;;;;;;5034235;28;20443;-81
2023/09/10 06:32:18;;;;;;;7.17;4.70;;;19.70;99.90;;;;;;5034445;28;20541;-81
2023/09/10 06:34:44;;;;;;;9.17;5.20;;;19.90;99.90;;;;;;5034254;28;20478;-81
2023/09/10 06:37:12;;;;;;;11.30;4.43;;;20.10;99.90;;;;;;5033956;28;20478;-81
2023/09/10 06:39:39;;;;;;;7.50;5.07;;;20.10;99.90;;;;;;5034167;28;20461;-80
2023/09/10 06:42:06;;;;;;;7.60;4.80;;;20.20;99.90;;;;;;5034380;28;20442;-81
2023/09/10 06:44:33;;;;;;;6.07;4.70;;;20.30;99.90;;;;;;5033872;28;20446;-81
2023/09/10 06:47:00;;;;;;;8.73;5.30;;;20.40;99.90;;;;;;5034101;28;20446;-81
2023/09/10 06:49:29;;;;;;;6.47;5.30;;;20.50;99.90;;;;;;5034358;28;20462;-81
2023/09/10 06:51:56;;;;;;;9.60;4.83;;;20.60;99.90;;;;;;5034056;28;20803;-81
2023/09/10 06:54:23;;;;;;;7.23;3.67;;;20.70;99.90;;;;;;5033777;28;20958;-81
2023/09/10 06:56:50;;;;;;;5.20;4.70;;;20.70;99.90;;;;;;5033548;28;20998;-81
2023/09/10 06:59:17;;;;;;;6.80;5.50;;;20.80;99.90;;;;;;5033651;28;20450;-81
2023/09/10 07:01:45;;;;;;;5.73;4.70;;;21.00;99.90;;;;;;5033570;28;20451;-81
2023/09/10 07:04:18;;;;;;;6.20;4.60;;;21.00;99.90;;;;;;5033891;28;20431;-81
2023/09/10 07:06:47;;;;;;;9.77;5.40;;;21.10;99.90;;;;;;5033826;28;20442;-81
2023/09/10 07:09:15;;;;;;;8.93;5.73;;;21.20;99.90;;;;;;5033748;28;20504;-81
2023/09/10 07:11:41;;;;;;;6.33;5.30;;;21.30;99.90;;;;;;5033408;28;20473;-81
2023/09/10 07:14:08;;;;;;;6.50;4.27;;;21.40;99.90;;;;;;5033464;28;20440;-81
2023/09/10 07:16:35;;;;;;;6.10;5.20;;;21.50;99.90;;;;;;5033310;28;21006;-81
2023/09/10 07:19:02;;;;;;;6.43;4.63;;;21.60;99.90;;;;;;5033564;28;20434;-81
2023/09/10 07:21:29;;;;;;;8.70;5.00;;;21.60;99.90;;;;;;5033590;28;20456;-81
2023/09/10 07:23:57;;;;;;;4.60;4.20;;;21.80;99.90;;;;;;5033126;28;20449;-81
2023/09/10 07:26:24;;;;;;;6.33;4.83;;;21.90;99.90;;;;;;5033013;28;20477;-81
2023/09/10 07:28:50;;;;;;;5.20;4.07;;;22.10;99.90;;;;;;5034076;28;20790;-81
2023/09/10 07:31:17;;;;;;;4.93;4.20;;;22.10;99.90;;;;;;5033410;28;20442;-81
2023/09/10 07:33:44;;;;;;;6.23;4.33;;;22.10;99.90;;;;;;5033450;28;20449;-81
2023/09/10 07:36:11;;;;;;;4.93;4.40;;;22.20;99.90;;;;;;5033240;28;20486;-81
2023/09/10 07:38:38;;;;;;;4.20;3.50;;;22.30;99.90;;;;;;5033319;28;20453;-81
2023/09/10 07:41:06;;;;;;;6.20;4.20;;;22.40;99.90;;;;;;5033292;28;20442;-81
2023/09/10 07:43:33;;;;;;;11.87;4.53;;;22.50;99.90;;;;;;5032989;28;20451;-81
2023/09/10 07:45:59;;;;;;;4.27;3.97;;;22.60;99.90;;;;;;5032944;28;20450;-81
2023/09/10 07:48:26;;;;;;;5.60;3.27;;;22.80;99.90;;;;;;5032934;28;20938;-81
2023/09/10 07:50:57;;;;;;;5.37;4.30;;;22.90;99.90;;;;;;5033192;28;20446;-81
2023/09/10 07:53:24;;;;;;;10.13;4.40;;;23.00;99.90;;;;;;5033165;28;20233;-81
2023/09/10 07:55:51;;;;;;;4.20;3.80;;;23.10;99.90;;;;;;5033178;28;20470;-81
2023/09/10 07:58:19;;;;;;;6.10;3.67;;;23.20;99.90;;;;;;5033130;28;20203;-81
2023/09/10 08:00:46;;;;;;;6.17;3.80;;;23.30;99.90;;;;;;5033149;28;20436;-81
2023/09/10 08:03:14;;;;;;;4.17;3.70;;;23.40;99.90;;;;;;5032845;28;20238;-81
2023/09/10 08:05:41;;;;;;;5.03;4.20;;;23.50;99.90;;;;;;5032765;28;20211;-81
2023/09/10 08:08:08;;;;;;;4.30;3.50;;;23.60;99.90;;;;;;5033098;28;20214;-80
2023/09/10 08:10:35;;;;;;;4.60;3.35;;;23.80;99.90;;;;;;5032998;28;20229;-81
2023/09/10 08:13:04;;;;;;;5.83;3.93;;;24.00;99.90;;;;;;5032794;28;20196;-81
2023/09/10 08:15:32;;;;;;;3.72;3.40;;;24.10;99.90;;;;;;5032670;28;20234;-81
2023/09/10 08:18:00;;;;;;;4.35;3.92;;;24.20;99.90;;;;;;5032704;28;20226;-81
2023/09/10 08:20:26;;;;;;;4.10;3.50;;;24.30;99.90;;;;;;5032764;28;20195;-81
2023/09/10 08:22:53;;;;;;;3.22;2.80;;;24.50;99.90;;;;;;5032962;28;20203;-81
2023/09/10 08:25:20;;;;;;;3.65;3.17;;;24.60;99.90;;;;;;5032936;28;20223;-81
2023/09/10 08:27:47;;;;;;;5.30;3.10;;;24.70;99.90;;;;;;5033184;28;20605;-81
2023/09/10 08:30:14;;;;;;;3.33;2.85;;;24.80;99.90;;;;;;5032646;28;20195;-81
2023/09/10 08:32:45;;;;;;;4.57;3.22;;;24.80;99.90;;;;;;5032865;28;20205;-81
2023/09/10 08:35:12;;;;;;;3.47;3.17;;;24.90;99.90;;;;;;5034157;28;20577;-81
2023/09/10 08:37:39;;;;;;;2.83;2.63;;;25.10;99.90;;;;;;5036557;28;20290;-81
2023/09/10 08:40:08;;;;;;;3.10;2.90;;;25.20;99.90;;;;;;5036567;28;20210;-81
2023/09/10 08:42:41;;;;;;;4.57;3.70;;;25.40;99.90;;;;;;5036200;28;20550;-81
2023/09/10 08:45:10;;;;;;;4.15;2.75;;;25.40;99.90;;;;;;5036371;28;20226;-81
2023/09/10 08:47:40;;;;;;;3.60;3.30;;;25.60;99.90;;;;;;5036381;28;20245;-81
2023/09/10 08:50:10;;;;;;;3.30;2.70;;;25.70;99.90;;;;;;5036374;28;20207;-82
2023/09/10 08:52:39;;;;;;;3.80;3.42;;;25.90;99.90;;;;;;5036356;28;20616;-81
2023/09/10 08:55:07;;;;;;;3.47;3.10;;;26.00;99.90;;;;;;5035895;28;20715;-81
2023/09/10 08:57:37;;;;;;;4.68;3.28;;;26.10;99.90;;;;;;5036161;28;20400;-81
2023/09/10 09:00:10;;;;;;;3.97;2.83;;;26.20;99.90;;;;;;5036197;28;20207;-81
2023/09/10 09:02:37;;;;;;;2.85;2.65;;;26.30;99.90;;;;;;5036275;28;20626;-81
2023/09/10 09:05:05;;;;;;;5.15;3.05;;;26.40;99.90;;;;;;5035858;28;20227;-81
2023/09/10 09:07:45;;;;;;;3.35;3.05;;;26.50;99.90;;;;;;5036407;28;20207;-81
2023/09/10 09:10:17;;;;;;;3.00;2.80;;;26.80;99.90;;;;;;5036298;28;20199;-80
2023/09/10 09:12:45;;;;;;;2.72;2.50;;;27.00;99.90;;;;;;5036061;28;20187;-81
2023/09/10 09:15:12;;;;;;;4.80;3.00;;;27.10;99.90;;;;;;5035797;28;20223;-81
2023/09/10 09:17:39;;;;;;;3.47;3.05;;;27.30;99.90;;;;;;5035845;28;20210;-81
2023/09/10 09:20:12;;;;;;;3.85;3.55;;;27.40;99.90;;;;;;5035694;28;20605;-80
2023/09/10 09:22:45;;;;;;;2.58;2.38;;;27.50;99.90;;;;;;5035803;28;20191;-81
2023/09/10 09:25:13;;;;;;;6.00;3.28;;;27.50;99.90;;;;;;5035539;28;20223;-81
2023/09/10 09:27:41;;;;;;;6.30;3.33;;;27.70;99.90;;;;;;5036483;28;20195;-81
2023/09/10 09:30:09;;;;;;;3.00;2.70;;;27.90;99.90;;;;;;5035700;28;20200;-80
2023/09/10 09:32:37;;;;;;;2.63;2.42;;;28.00;99.90;;;;;;5036044;28;20219;-80
2023/09/10 09:35:04;;;;;;;3.28;3.08;;;28.20;99.90;;;;;;5035499;28;20232;-81
2023/09/10 09:37:32;;;;;;;3.38;3.08;;;28.40;99.90;;;;;;5035421;28;20231;-81
2023/09/10 09:40:02;;;;;;;2.63;2.42;;;28.40;99.90;;;;;;5035162;28;20253;-81
2023/09/10 09:42:29;;;;;;;5.07;3.55;;;28.30;99.90;;;;;;5035467;28;20187;-81
2023/09/10 09:44:57;;;;;;;2.83;2.38;;;28.30;99.90;;;;;;5035069;28;20228;-81
2023/09/10 09:47:24;;;;;;;2.95;2.67;;;28.20;99.90;;;;;;5034331;28;20203;-81
2023/09/10 09:49:51;;;;;;;5.10;3.10;;;28.30;99.90;;;;;;5035280;28;20661;-81
2023/09/10 09:52:18;;;;;;;4.55;3.00;;;28.30;99.90;;;;;;5035066;28;20208;-81
2023/09/10 09:54:46;;;;;;;3.28;2.97;;;28.20;99.90;;;;;;5035013;28;20569;-81
2023/09/10 09:57:15;;;;;;;3.85;3.40;;;28.30;99.90;;;;;;5034861;28;20223;-81
2023/09/10 09:59:41;;;;;;;5.82;3.53;;;28.30;99.90;;;;;;5035128;28;20214;-81
2023/09/10 10:02:14;;;;;;;3.33;3.03;;;28.40;99.90;;;;;;5034767;28;20698;-81
2023/09/10 10:04:41;;;;;;;4.10;2.53;;;28.50;99.90;;;;;;5034675;28;20231;-81
2023/09/10 10:07:09;;;;;;;3.72;3.28;;;28.50;99.90;;;;;;5034866;28;20722;-81
2023/09/10 10:09:36;;;;;;;2.67;2.47;;;28.70;99.90;;;;;;5034768;28;20211;-81
2023/09/10 10:12:04;;;;;;;3.75;2.72;;;28.60;99.90;;;;;;5034897;28;20201;-82
2023/09/10 10:14:33;;;;;;;3.58;2.67;;;28.70;99.90;;;;;;5034845;28;20570;-81
2023/09/10 10:17:01;;;;;;;3.03;2.83;;;28.70;99.90;;;;;;5034718;28;20209;-82
2023/09/10 10:19:30;;;;;;;3.55;3.25;;;28.80;99.90;;;;;;5034653;28;20571;-82
2023/09/10 10:21:58;;;;;;;3.70;3.22;;;28.90;99.90;;;;;;5034636;28;20259;-82
2023/09/10 10:24:25;;;;;;;3.33;3.03;;;28.90;99.90;;;;;;5034214;28;20217;-81
2023/09/10 10:26:52;;;;;;;3.90;3.60;;;29.00;99.90;;;;;;5034146;28;20711;-81
2023/09/10 10:29:20;;;;;;;3.25;3.05;;;29.00;99.90;;;;;;5034219;28;20210;-81
2023/09/10 10:31:56;;;;;;;4.45;2.63;;;29.10;99.90;;;;;;5034250;28;20194;-82
2023/09/10 10:34:24;;;;;;;3.90;3.50;;;29.10;99.90;;;;;;5034450;28;20206;-81
2023/09/10 10:37:02;;;;;;;3.08;2.80;;;29.10;99.90;;;;;;5034325;28;20220;-81
2023/09/10 10:39:38;;;;;;;3.22;2.55;;;29.00;99.90;;;;;;5034439;28;20191;-81
2023/09/10 10:42:09;;;;;;;3.90;3.58;;;29.10;99.90;;;;;;5034299;28;20657;-81
2023/09/10 10:44:38;;;;;;;3.72;3.20;;;29.20;99.90;;;;;;5033911;28;20247;-82
2023/09/10 10:47:13;;;;;;;6.32;3.15;;;29.20;99.90;;;;;;5034221;28;20234;-82
2023/09/10 10:49:45;;;;;;;3.25;2.97;;;29.20;99.90;;;;;;5034162;28;20195;-81
2023/09/10 10:52:16;;;;;;;4.78;3.05;;;29.20;99.90;;;;;;5033852;28;20190;-81
2023/09/10 10:54:44;;;;;;;4.78;3.70;;;29.30;99.90;;;;;;5034060;28;20226;-84
2023/09/10 10:57:11;;;;;;;2.80;2.58;;;29.50;99.90;;;;;;5033600;28;20224;-81
2023/09/10 10:59:39;;;;;;;2.85;2.50;;;29.60;99.90;;;;;;5032750;28;20686;-81
2023/09/10 11:02:13;;;;;;;2.58;2.40;;;29.70;99.90;;;;;;5034568;28;20198;-82
2023/09/10 11:04:54;;;;;;;3.38;3.08;;;29.70;99.90;;;;;;5033606;28;20228;-82
2023/09/10 11:07:22;;;;;;;2.38;2.17;;;29.50;99.90;;;;;;5033948;28;20197;-82
2023/09/10 11:09:49;;;;;;;3.67;3.38;;;29.40;99.90;;;;;;5033796;28;20206;-82
2023/09/10 11:12:16;;;;;;;2.60;2.40;;;29.50;99.90;;;;;;5033738;28;20202;-82
2023/09/10 11:15:10;;;;;;;3.17;2.92;;;29.60;99.90;;;;;;5033432;28;20223;-82
2023/09/10 11:17:38;;;;;;;2.53;2.33;;;29.60;99.90;;;;;;5033604;28;20275;-82
2023/09/10 11:20:06;;;;;;;4.40;2.80;;;29.70;99.90;;;;;;5033737;28;20192;-82
2023/09/10 11:23:09;;;;;;;2.67;2.47;;;29.60;99.90;;;;;;5033356;28;20188;-82
2023/09/10 11:25:39;;;;;;;2.88;2.67;;;29.70;99.90;;;;;;5033649;28;20300;-82
2023/09/10 11:28:39;;;;;;;4.03;3.00;;;29.70;99.90;;;;;;5033524;28;20198;-82
2023/09/10 11:31:36;;;;;;;3.03;2.83;;;29.80;99.90;;;;;;5033177;28;20260;-81
2023/09/10 11:34:39;;;;;;;2.70;2.50;;;29.70;99.90;;;;;;5033493;28;20249;-82
2023/09/10 11:37:08;;;;;;;3.22;2.92;;;29.70;99.90;;;;;;5033126;28;20210;-82
2023/09/10 11:39:36;;;;;;;4.03;2.97;;;29.70;99.90;;;;;;5033082;28;20680;-82
2023/09/10 11:42:07;;;;;;;2.38;2.28;;;29.70;99.90;;;;;;5033361;28;20202;-82
2023/09/10 11:44:35;;;;;;;3.22;2.90;;;29.80;99.90;;;;;;5033567;28;20203;-82
2023/09/10 11:47:01;;;;;;;3.08;2.65;;;29.80;99.90;;;;;;5033221;28;20755;-82
2023/09/10 11:49:28;;;;;;;2.63;2.40;;;29.80;99.90;;;;;;5032992;28;20214;-82
2023/09/10 11:51:58;;;;;;;2.22;2.13;;;29.80;99.90;;;;;;5033318;28;20203;-82
2023/09/10 11:54:26;;;;;;;3.25;2.55;;;29.70;99.90;;;;;;5032970;28;20272;-82
2023/09/10 11:56:55;;;;;;;3.55;3.25;;;29.70;99.90;;;;;;5033399;28;20203;-81
2023/09/10 11:59:24;;;;;;;4.10;2.80;;;29.40;99.90;;;;;;5033228;28;20207;-82
2023/09/10 12:01:53;;;;;;;3.53;3.22;;;29.20;99.90;;;;;;5032907;28;20202;-82
2023/09/10 12:04:20;;;;;;;2.78;2.58;;;29.00;99.90;;;;;;5033114;28;20213;-82
2023/09/10 12:06:47;;;;;;;2.35;2.22;;;28.90;99.90;;;;;;5032847;28;20304;-82
2023/09/10 12:09:18;;;;;;;3.30;2.50;;;28.90;99.90;;;;;;5032851;28;20201;-82
2023/09/10 12:11:46;;;;;;;3.17;2.65;;;28.90;99.90;;;;;;5037164;28;20247;-82
2023/09/10 12:14:14;;;;;;;2.75;2.55;;;28.80;99.90;;;;;;5037112;28;20205;-81
2023/09/10 12:16:41;;;;;;;2.60;2.50;;;28.80;99.90;;;;;;5036997;28;20279;-82
2023/09/10 12:19:09;;;;;;;3.38;2.78;;;28.90;99.90;;;;;;5036906;28;20218;-82
2023/09/10 12:21:35;;;;;;;2.80;2.60;;;28.80;99.90;;;;;;5036947;28;20212;-82
2023/09/10 12:24:02;;;;;;;3.22;2.75;;;28.60;99.90;;;;;;5036859;28;20209;-81
2023/09/10 12:26:31;;;;;;;3.03;2.80;;;28.60;99.90;;;;;;5036403;28;20270;-82
2023/09/10 12:28:58;;;;;;;2.35;2.25;;;28.60;99.90;;;;;;5036756;28;20199;-82
2023/09/10 12:31:25;;;;;;;2.85;2.63;;;28.60;99.90;;;;;;5036727;28;20192;-82
2023/09/10 12:33:52;;;;;;;3.60;2.92;;;28.60;99.90;;;;;;5036373;28;20669;-81
2023/09/10 12:36:19;;;;;;;2.83;2.63;;;28.70;99.90;;;;;;5036660;28;20223;-81
2023/09/10 12:38:45;;;;;;;3.28;3.00;;;28.60;99.90;;;;;;5036609;28;20228;-82
2023/09/10 12:41:16;;;;;;;4.13;3.03;;;28.60;99.90;;;;;;5036266;28;20648;-82
2023/09/10 12:43:44;;;;;;;3.90;3.22;;;28.40;99.90;;;;;;5036600;28;20191;-82
2023/09/10 12:46:11;;;;;;;3.05;2.75;;;28.30;99.90;;;;;;5036474;28;20235;-80
2023/09/10 12:48:38;;;;;;;3.33;3.03;;;28.30;99.90;;;;;;5036796;28;20559;-81
2023/09/10 12:51:05;;;;;;;5.63;3.20;;;28.40;99.90;;;;;;5036305;28;20196;-80